Otis, Louisiana
Current Conditions -  °F | °C
As of 3:53 PM on Thursday 27 Nov 2014 (Local Time) from KAEX Reporting Station
Clear Clear  
Wind Chill: 57°   Ceiling: Unl
Heat Index: 57°   Visibility: 10mi
Dew Point: 29°   Wind: 8mph
Humidity: 34%   Direction: 70°ENE
Pressure: 30.42"   Gusts: NA
Location:  31.22°N, 92.73°W
Report Text: KAEX 272153Z AUTO 07007KT 10SM CLR 14/M02 A3042 RMK AO2 SLP307 T01391017
Loading
Personal Weather Stations






























Interactive Weather Map New forecast layout! Learn more

10-Day Weather Forecast

Advertisements
Track Severe Weather on mobile